sensor_id;sensor_type;location;lat;lon;timestamp;P1;durP1;ratioP1;P2;durP2;ratioP2
82727;SDS011;72459;50.110;8.750;2024-03-07T00:01:28;33.58;;;15.57;;
82727;SDS011;72459;50.110;8.750;2024-03-07T00:03:53;30.23;;;15.35;;
82727;SDS011;72459;50.110;8.750;2024-03-07T00:06:18;31.63;;;15.80;;
82727;SDS011;72459;50.110;8.750;2024-03-07T00:08:46;33.17;;;17.25;;
82727;SDS011;72459;50.110;8.750;2024-03-07T00:11:11;31.58;;;15.77;;
82727;SDS011;72459;50.110;8.750;2024-03-07T00:13:37;35.08;;;17.58;;
82727;SDS011;72459;50.110;8.750;2024-03-07T00:16:02;34.10;;;16.57;;
82727;SDS011;72459;50.110;8.750;2024-03-07T00:18:27;31.70;;;16.30;;
82727;SDS011;72459;50.110;8.750;2024-03-07T00:20:53;29.20;;;16.20;;
82727;SDS011;72459;50.110;8.750;2024-03-07T00:23:19;29.60;;;15.70;;
82727;SDS011;72459;50.110;8.750;2024-03-07T00:25:45;31.15;;;15.82;;
82727;SDS011;72459;50.110;8.750;2024-03-07T00:28:14;33.42;;;16.25;;
82727;SDS011;72459;50.110;8.750;2024-03-07T00:30:42;31.70;;;16.33;;
82727;SDS011;72459;50.110;8.750;2024-03-07T00:33:09;32.05;;;16.65;;
82727;SDS011;72459;50.110;8.750;2024-03-07T00:35:35;32.20;;;16.08;;
82727;SDS011;72459;50.110;8.750;2024-03-07T00:38:00;30.93;;;16.70;;
82727;SDS011;72459;50.110;8.750;2024-03-07T00:40:25;33.42;;;16.83;;
82727;SDS011;72459;50.110;8.750;2024-03-07T00:42:51;30.73;;;16.52;;
82727;SDS011;72459;50.110;8.750;2024-03-07T00:45:16;30.52;;;14.68;;
82727;SDS011;72459;50.110;8.750;2024-03-07T00:47:42;31.77;;;16.35;;
82727;SDS011;72459;50.110;8.750;2024-03-07T00:50:07;40.15;;;17.67;;
82727;SDS011;72459;50.110;8.750;2024-03-07T00:52:34;31.55;;;15.75;;
82727;SDS011;72459;50.110;8.750;2024-03-07T00:54:59;34.33;;;16.53;;
82727;SDS011;72459;50.110;8.750;2024-03-07T00:57:24;34.63;;;16.23;;
82727;SDS011;72459;50.110;8.750;2024-03-07T00:59:50;32.70;;;15.57;;
82727;SDS011;72459;50.110;8.750;2024-03-07T01:02:15;33.47;;;16.83;;
82727;SDS011;72459;50.110;8.750;2024-03-07T01:04:43;31.33;;;15.02;;
82727;SDS011;72459;50.110;8.750;2024-03-07T01:07:09;32.65;;;15.63;;
82727;SDS011;72459;50.110;8.750;2024-03-07T01:09:34;32.20;;;15.60;;
82727;SDS011;72459;50.110;8.750;2024-03-07T01:12:01;31.60;;;15.48;;
82727;SDS011;72459;50.110;8.750;2024-03-07T01:14:29;34.97;;;16.10;;
82727;SDS011;72459;50.110;8.750;2024-03-07T01:16:56;33.00;;;14.85;;
82727;SDS011;72459;50.110;8.750;2024-03-07T01:19:21;30.35;;;15.90;;
82727;SDS011;72459;50.110;8.750;2024-03-07T01:21:46;32.25;;;15.75;;
82727;SDS011;72459;50.110;8.750;2024-03-07T01:24:12;31.35;;;15.65;;
82727;SDS011;72459;50.110;8.750;2024-03-07T01:26:38;35.30;;;15.63;;
82727;SDS011;72459;50.110;8.750;2024-03-07T01:29:04;31.63;;;15.52;;
82727;SDS011;72459;50.110;8.750;2024-03-07T01:31:31;32.85;;;15.32;;
82727;SDS011;72459;50.110;8.750;2024-03-07T01:33:57;30.92;;;15.68;;
82727;SDS011;72459;50.110;8.750;2024-03-07T01:36:23;32.80;;;16.00;;
82727;SDS011;72459;50.110;8.750;2024-03-07T01:38:49;29.50;;;16.08;;
82727;SDS011;72459;50.110;8.750;2024-03-07T01:41:14;29.15;;;15.55;;
82727;SDS011;72459;50.110;8.750;2024-03-07T01:43:39;32.73;;;16.73;;
82727;SDS011;72459;50.110;8.750;2024-03-07T01:46:05;34.67;;;16.20;;
82727;SDS011;72459;50.110;8.750;2024-03-07T01:48:31;30.75;;;16.05;;
82727;SDS011;72459;50.110;8.750;2024-03-07T01:50:58;33.80;;;16.42;;
82727;SDS011;72459;50.110;8.750;2024-03-07T01:53:25;34.90;;;17.08;;
82727;SDS011;72459;50.110;8.750;2024-03-07T01:55:51;29.33;;;15.38;;
82727;SDS011;72459;50.110;8.750;2024-03-07T01:58:18;31.45;;;15.60;;
82727;SDS011;72459;50.110;8.750;2024-03-07T02:00:44;32.88;;;16.27;;
82727;SDS011;72459;50.110;8.750;2024-03-07T02:03:10;32.22;;;15.63;;
82727;SDS011;72459;50.110;8.750;2024-03-07T02:05:35;31.00;;;15.38;;
82727;SDS011;72459;50.110;8.750;2024-03-07T02:08:01;31.27;;;15.55;;
82727;SDS011;72459;50.110;8.750;2024-03-07T02:10:26;28.52;;;15.20;;
82727;SDS011;72459;50.110;8.750;2024-03-07T02:12:52;33.33;;;15.57;;
82727;SDS011;72459;50.110;8.750;2024-03-07T02:15:17;31.02;;;15.07;;
82727;SDS011;72459;50.110;8.750;2024-03-07T02:17:43;28.85;;;14.65;;
82727;SDS011;72459;50.110;8.750;2024-03-07T02:20:09;34.42;;;15.13;;
82727;SDS011;72459;50.110;8.750;2024-03-07T02:22:36;30.23;;;14.60;;
82727;SDS011;72459;50.110;8.750;2024-03-07T02:25:02;32.85;;;14.85;;
82727;SDS011;72459;50.110;8.750;2024-03-07T02:27:28;30.27;;;14.27;;
82727;SDS011;72459;50.110;8.750;2024-03-07T02:32:21;30.13;;;14.43;;
82727;SDS011;72459;50.110;8.750;2024-03-07T02:34:48;30.63;;;14.27;;
82727;SDS011;72459;50.110;8.750;2024-03-07T02:37:13;26.70;;;12.90;;
82727;SDS011;72459;50.110;8.750;2024-03-07T02:39:38;29.90;;;14.27;;
82727;SDS011;72459;50.110;8.750;2024-03-07T02:42:04;26.13;;;12.88;;
82727;SDS011;72459;50.110;8.750;2024-03-07T02:44:29;30.50;;;14.98;;
82727;SDS011;72459;50.110;8.750;2024-03-07T02:46:57;27.95;;;13.73;;
82727;SDS011;72459;50.110;8.750;2024-03-07T02:49:23;25.55;;;12.63;;
82727;SDS011;72459;50.110;8.750;2024-03-07T02:51:48;27.03;;;13.27;;
82727;SDS011;72459;50.110;8.750;2024-03-07T02:54:13;30.33;;;14.10;;
82727;SDS011;72459;50.110;8.750;2024-03-07T02:56:39;27.30;;;13.07;;
82727;SDS011;72459;50.110;8.750;2024-03-07T02:59:04;27.42;;;12.57;;
82727;SDS011;72459;50.110;8.750;2024-03-07T03:01:30;25.45;;;13.18;;
82727;SDS011;72459;50.110;8.750;2024-03-07T03:03:55;28.38;;;13.48;;
82727;SDS011;72459;50.110;8.750;2024-03-07T03:06:21;27.57;;;12.97;;
82727;SDS011;72459;50.110;8.750;2024-03-07T03:08:46;26.85;;;12.93;;
82727;SDS011;72459;50.110;8.750;2024-03-07T03:11:13;25.90;;;13.20;;
82727;SDS011;72459;50.110;8.750;2024-03-07T03:13:42;27.70;;;13.25;;
82727;SDS011;72459;50.110;8.750;2024-03-07T03:16:08;24.48;;;11.57;;
82727;SDS011;72459;50.110;8.750;2024-03-07T03:18:35;28.70;;;12.77;;
82727;SDS011;72459;50.110;8.750;2024-03-07T03:21:00;26.38;;;12.63;;
82727;SDS011;72459;50.110;8.750;2024-03-07T03:23:27;25.58;;;12.70;;
82727;SDS011;72459;50.110;8.750;2024-03-07T03:25:52;27.92;;;14.18;;
82727;SDS011;72459;50.110;8.750;2024-03-07T03:28:18;27.83;;;13.57;;
82727;SDS011;72459;50.110;8.750;2024-03-07T03:30:44;28.35;;;13.30;;
82727;SDS011;72459;50.110;8.750;2024-03-07T03:33:09;25.30;;;12.55;;
82727;SDS011;72459;50.110;8.750;2024-03-07T03:35:38;26.27;;;12.70;;
82727;SDS011;72459;50.110;8.750;2024-03-07T03:38:04;22.88;;;12.88;;
82727;SDS011;72459;50.110;8.750;2024-03-07T03:40:31;29.77;;;13.55;;
82727;SDS011;72459;50.110;8.750;2024-03-07T03:42:57;25.23;;;12.43;;
82727;SDS011;72459;50.110;8.750;2024-03-07T03:45:22;25.53;;;12.80;;
82727;SDS011;72459;50.110;8.750;2024-03-07T03:47:50;24.77;;;11.63;;
82727;SDS011;72459;50.110;8.750;2024-03-07T03:50:16;24.65;;;11.98;;
82727;SDS011;72459;50.110;8.750;2024-03-07T03:52:42;22.13;;;11.32;;
82727;SDS011;72459;50.110;8.750;2024-03-07T03:55:08;28.35;;;13.25;;
82727;SDS011;72459;50.110;8.750;2024-03-07T03:57:38;24.13;;;12.02;;
82727;SDS011;72459;50.110;8.750;2024-03-07T04:00:05;25.90;;;12.10;;
82727;SDS011;72459;50.110;8.750;2024-03-07T04:02:46;25.25;;;12.00;;
82727;SDS011;72459;50.110;8.750;2024-03-07T04:05:13;22.92;;;12.32;;
82727;SDS011;72459;50.110;8.750;2024-03-07T04:07:40;23.75;;;12.30;;
82727;SDS011;72459;50.110;8.750;2024-03-07T04:10:06;27.50;;;13.18;;
82727;SDS011;72459;50.110;8.750;2024-03-07T04:12:36;26.65;;;12.93;;
82727;SDS011;72459;50.110;8.750;2024-03-07T04:15:09;24.70;;;12.57;;
82727;SDS011;72459;50.110;8.750;2024-03-07T04:17:37;25.60;;;11.77;;
82727;SDS011;72459;50.110;8.750;2024-03-07T04:20:03;26.85;;;13.05;;
82727;SDS011;72459;50.110;8.750;2024-03-07T04:22:30;24.52;;;11.45;;
82727;SDS011;72459;50.110;8.750;2024-03-07T04:24:56;26.73;;;13.10;;
82727;SDS011;72459;50.110;8.750;2024-03-07T04:27:22;27.02;;;12.48;;
82727;SDS011;72459;50.110;8.750;2024-03-07T04:29:47;24.13;;;11.98;;
82727;SDS011;72459;50.110;8.750;2024-03-07T04:32:13;25.45;;;12.70;;
82727;SDS011;72459;50.110;8.750;2024-03-07T04:34:39;27.08;;;13.10;;
82727;SDS011;72459;50.110;8.750;2024-03-07T04:37:04;23.65;;;11.52;;
82727;SDS011;72459;50.110;8.750;2024-03-07T04:39:30;26.05;;;12.65;;
82727;SDS011;72459;50.110;8.750;2024-03-07T04:42:07;26.92;;;12.23;;
82727;SDS011;72459;50.110;8.750;2024-03-07T04:44:34;27.33;;;11.98;;
82727;SDS011;72459;50.110;8.750;2024-03-07T04:47:00;24.98;;;12.05;;
82727;SDS011;72459;50.110;8.750;2024-03-07T04:49:27;25.40;;;12.10;;
82727;SDS011;72459;50.110;8.750;2024-03-07T04:51:54;23.55;;;12.15;;
82727;SDS011;72459;50.110;8.750;2024-03-07T04:54:21;27.23;;;13.23;;
82727;SDS011;72459;50.110;8.750;2024-03-07T04:56:49;22.38;;;11.65;;
82727;SDS011;72459;50.110;8.750;2024-03-07T05:01:42;23.35;;;11.68;;
82727;SDS011;72459;50.110;8.750;2024-03-07T05:04:09;26.58;;;11.75;;
82727;SDS011;72459;50.110;8.750;2024-03-07T05:09:02;23.63;;;10.77;;
82727;SDS011;72459;50.110;8.750;2024-03-07T05:11:29;23.45;;;10.65;;
82727;SDS011;72459;50.110;8.750;2024-03-07T05:13:55;24.35;;;12.32;;
82727;SDS011;72459;50.110;8.750;2024-03-07T05:16:22;22.02;;;11.88;;
82727;SDS011;72459;50.110;8.750;2024-03-07T05:18:48;23.88;;;12.05;;
82727;SDS011;72459;50.110;8.750;2024-03-07T05:21:15;26.40;;;11.85;;
82727;SDS011;72459;50.110;8.750;2024-03-07T05:23:59;23.48;;;11.30;;
82727;SDS011;72459;50.110;8.750;2024-03-07T05:26:30;24.42;;;11.73;;
82727;SDS011;72459;50.110;8.750;2024-03-07T05:29:02;22.63;;;11.55;;
82727;SDS011;72459;50.110;8.750;2024-03-07T05:31:35;27.40;;;13.00;;
82727;SDS011;72459;50.110;8.750;2024-03-07T05:34:10;25.55;;;11.68;;
82727;SDS011;72459;50.110;8.750;2024-03-07T05:36:37;24.92;;;12.32;;
82727;SDS011;72459;50.110;8.750;2024-03-07T05:39:09;23.85;;;11.32;;
82727;SDS011;72459;50.110;8.750;2024-03-07T05:41:36;22.98;;;12.25;;
82727;SDS011;72459;50.110;8.750;2024-03-07T05:44:02;23.83;;;11.32;;
82727;SDS011;72459;50.110;8.750;2024-03-07T05:46:28;23.67;;;11.50;;
82727;SDS011;72459;50.110;8.750;2024-03-07T05:48:53;25.63;;;12.82;;
82727;SDS011;72459;50.110;8.750;2024-03-07T05:51:23;24.00;;;11.27;;
82727;SDS011;72459;50.110;8.750;2024-03-07T05:53:49;26.85;;;12.88;;
82727;SDS011;72459;50.110;8.750;2024-03-07T05:56:15;25.08;;;12.68;;
82727;SDS011;72459;50.110;8.750;2024-03-07T05:58:40;26.25;;;11.85;;
82727;SDS011;72459;50.110;8.750;2024-03-07T06:01:06;27.30;;;11.48;;
82727;SDS011;72459;50.110;8.750;2024-03-07T06:03:33;23.17;;;11.00;;
82727;SDS011;72459;50.110;8.750;2024-03-07T06:05:59;25.10;;;12.32;;
82727;SDS011;72459;50.110;8.750;2024-03-07T06:08:24;22.80;;;11.57;;
82727;SDS011;72459;50.110;8.750;2024-03-07T06:10:49;24.17;;;11.30;;
82727;SDS011;72459;50.110;8.750;2024-03-07T06:13:15;21.48;;;11.90;;
82727;SDS011;72459;50.110;8.750;2024-03-07T06:15:45;22.42;;;11.55;;
82727;SDS011;72459;50.110;8.750;2024-03-07T06:18:12;27.23;;;11.98;;
82727;SDS011;72459;50.110;8.750;2024-03-07T06:20:42;20.92;;;10.65;;
82727;SDS011;72459;50.110;8.750;2024-03-07T06:23:08;21.77;;;10.25;;
82727;SDS011;72459;50.110;8.750;2024-03-07T06:25:36;24.45;;;12.30;;
82727;SDS011;72459;50.110;8.750;2024-03-07T06:28:11;25.50;;;11.57;;
82727;SDS011;72459;50.110;8.750;2024-03-07T06:30:40;21.13;;;11.27;;
82727;SDS011;72459;50.110;8.750;2024-03-07T06:33:06;21.17;;;10.10;;
82727;SDS011;72459;50.110;8.750;2024-03-07T06:35:32;24.17;;;11.45;;
82727;SDS011;72459;50.110;8.750;2024-03-07T06:38:02;19.67;;;9.98;;
82727;SDS011;72459;50.110;8.750;2024-03-07T06:40:31;24.27;;;11.15;;
82727;SDS011;72459;50.110;8.750;2024-03-07T06:42:57;23.38;;;10.85;;
82727;SDS011;72459;50.110;8.750;2024-03-07T06:45:24;27.45;;;13.48;;
82727;SDS011;72459;50.110;8.750;2024-03-07T06:47:50;23.35;;;11.55;;
82727;SDS011;72459;50.110;8.750;2024-03-07T06:50:17;24.63;;;11.77;;
82727;SDS011;72459;50.110;8.750;2024-03-07T06:52:45;22.23;;;12.23;;
82727;SDS011;72459;50.110;8.750;2024-03-07T06:55:13;23.60;;;12.63;;
82727;SDS011;72459;50.110;8.750;2024-03-07T06:57:41;25.88;;;12.02;;
82727;SDS011;72459;50.110;8.750;2024-03-07T07:00:07;29.25;;;13.10;;
82727;SDS011;72459;50.110;8.750;2024-03-07T07:02:39;25.25;;;12.52;;
82727;SDS011;72459;50.110;8.750;2024-03-07T07:05:06;25.50;;;13.10;;
82727;SDS011;72459;50.110;8.750;2024-03-07T07:07:46;24.95;;;12.38;;
82727;SDS011;72459;50.110;8.750;2024-03-07T07:10:14;24.17;;;11.80;;
82727;SDS011;72459;50.110;8.750;2024-03-07T07:12:49;24.25;;;12.20;;
82727;SDS011;72459;50.110;8.750;2024-03-07T07:15:15;23.58;;;12.18;;
82727;SDS011;72459;50.110;8.750;2024-03-07T07:17:43;25.10;;;12.45;;
82727;SDS011;72459;50.110;8.750;2024-03-07T07:20:12;22.60;;;11.95;;
82727;SDS011;72459;50.110;8.750;2024-03-07T07:22:40;26.08;;;13.27;;
82727;SDS011;72459;50.110;8.750;2024-03-07T07:25:06;25.67;;;12.75;;
82727;SDS011;72459;50.110;8.750;2024-03-07T07:27:39;26.33;;;12.65;;
82727;SDS011;72459;50.110;8.750;2024-03-07T07:30:09;26.17;;;13.82;;
82727;SDS011;72459;50.110;8.750;2024-03-07T07:32:36;24.02;;;13.30;;
82727;SDS011;72459;50.110;8.750;2024-03-07T07:35:02;22.52;;;12.25;;
82727;SDS011;72459;50.110;8.750;2024-03-07T07:37:28;28.30;;;13.70;;
82727;SDS011;72459;50.110;8.750;2024-03-07T07:39:53;25.05;;;12.88;;
82727;SDS011;72459;50.110;8.750;2024-03-07T07:42:18;25.80;;;12.63;;
82727;SDS011;72459;50.110;8.750;2024-03-07T07:44:44;21.75;;;11.68;;
82727;SDS011;72459;50.110;8.750;2024-03-07T07:47:10;23.80;;;11.70;;
82727;SDS011;72459;50.110;8.750;2024-03-07T07:49:36;23.15;;;12.48;;
82727;SDS011;72459;50.110;8.750;2024-03-07T07:52:03;25.05;;;11.35;;
82727;SDS011;72459;50.110;8.750;2024-03-07T07:54:29;22.15;;;12.02;;
82727;SDS011;72459;50.110;8.750;2024-03-07T07:56:55;24.40;;;12.13;;
82727;SDS011;72459;50.110;8.750;2024-03-07T07:59:20;21.30;;;11.27;;
82727;SDS011;72459;50.110;8.750;2024-03-07T08:01:45;21.65;;;11.25;;
82727;SDS011;72459;50.110;8.750;2024-03-07T08:04:11;21.90;;;11.30;;
82727;SDS011;72459;50.110;8.750;2024-03-07T08:06:36;21.23;;;11.57;;
82727;SDS011;72459;50.110;8.750;2024-03-07T08:09:02;24.23;;;12.32;;
82727;SDS011;72459;50.110;8.750;2024-03-07T08:11:27;22.38;;;11.45;;
82727;SDS011;72459;50.110;8.750;2024-03-07T08:13:52;21.50;;;10.93;;
82727;SDS011;72459;50.110;8.750;2024-03-07T08:16:18;22.10;;;11.93;;
82727;SDS011;72459;50.110;8.750;2024-03-07T08:18:43;22.40;;;12.63;;
82727;SDS011;72459;50.110;8.750;2024-03-07T08:21:09;20.33;;;11.18;;
82727;SDS011;72459;50.110;8.750;2024-03-07T08:23:38;23.73;;;12.25;;
82727;SDS011;72459;50.110;8.750;2024-03-07T08:26:03;20.50;;;10.70;;
82727;SDS011;72459;50.110;8.750;2024-03-07T08:28:30;23.38;;;11.73;;
82727;SDS011;72459;50.110;8.750;2024-03-07T08:30:55;23.17;;;11.48;;
82727;SDS011;72459;50.110;8.750;2024-03-07T08:33:21;24.30;;;11.73;;
82727;SDS011;72459;50.110;8.750;2024-03-07T08:35:47;21.45;;;11.60;;
82727;SDS011;72459;50.110;8.750;2024-03-07T08:38:14;19.75;;;10.70;;
82727;SDS011;72459;50.110;8.750;2024-03-07T08:40:39;21.23;;;11.47;;
82727;SDS011;72459;50.110;8.750;2024-03-07T08:43:04;20.98;;;10.65;;
82727;SDS011;72459;50.110;8.750;2024-03-07T08:45:32;20.48;;;9.38;;
82727;SDS011;72459;50.110;8.750;2024-03-07T08:48:00;19.58;;;10.25;;
82727;SDS011;72459;50.110;8.750;2024-03-07T08:50:26;17.30;;;9.63;;
82727;SDS011;72459;50.110;8.750;2024-03-07T08:52:54;21.33;;;9.80;;
82727;SDS011;72459;50.110;8.750;2024-03-07T08:55:23;17.05;;;9.57;;
82727;SDS011;72459;50.110;8.750;2024-03-07T08:57:52;18.50;;;9.73;;
82727;SDS011;72459;50.110;8.750;2024-03-07T09:00:19;21.17;;;10.23;;
82727;SDS011;72459;50.110;8.750;2024-03-07T09:02:49;19.35;;;10.10;;
82727;SDS011;72459;50.110;8.750;2024-03-07T09:05:24;17.60;;;9.25;;
82727;SDS011;72459;50.110;8.750;2024-03-07T09:07:51;16.58;;;9.05;;
82727;SDS011;72459;50.110;8.750;2024-03-07T09:10:17;17.00;;;9.02;;
82727;SDS011;72459;50.110;8.750;2024-03-07T09:12:43;17.27;;;9.18;;
82727;SDS011;72459;50.110;8.750;2024-03-07T09:15:10;20.05;;;10.55;;
82727;SDS011;72459;50.110;8.750;2024-03-07T09:17:36;20.00;;;9.70;;
82727;SDS011;72459;50.110;8.750;2024-03-07T09:20:03;19.33;;;10.45;;
82727;SDS011;72459;50.110;8.750;2024-03-07T09:22:32;18.58;;;9.93;;
82727;SDS011;72459;50.110;8.750;2024-03-07T09:24:58;18.93;;;10.77;;
82727;SDS011;72459;50.110;8.750;2024-03-07T09:27:23;20.75;;;10.68;;
82727;SDS011;72459;50.110;8.750;2024-03-07T09:29:48;20.35;;;10.25;;
82727;SDS011;72459;50.110;8.750;2024-03-07T09:32:14;18.73;;;10.57;;
82727;SDS011;72459;50.110;8.750;2024-03-07T09:34:40;19.60;;;10.88;;
82727;SDS011;72459;50.110;8.750;2024-03-07T09:37:05;17.92;;;8.63;;
82727;SDS011;72459;50.110;8.750;2024-03-07T09:39:34;19.75;;;9.50;;
82727;SDS011;72459;50.110;8.750;2024-03-07T09:42:00;17.73;;;9.90;;
82727;SDS011;72459;50.110;8.750;2024-03-07T09:44:33;18.10;;;9.63;;
82727;SDS011;72459;50.110;8.750;2024-03-07T09:46:59;19.20;;;9.05;;
82727;SDS011;72459;50.110;8.750;2024-03-07T09:49:28;18.65;;;10.20;;
82727;SDS011;72459;50.110;8.750;2024-03-07T09:51:54;16.35;;;9.60;;
82727;SDS011;72459;50.110;8.750;2024-03-07T09:54:22;18.63;;;10.27;;
82727;SDS011;72459;50.110;8.750;2024-03-07T09:56:54;16.17;;;8.38;;
82727;SDS011;72459;50.110;8.750;2024-03-07T09:59:24;17.45;;;9.93;;
82727;SDS011;72459;50.110;8.750;2024-03-07T10:01:52;18.65;;;9.60;;
82727;SDS011;72459;50.110;8.750;2024-03-07T10:04:24;18.60;;;9.80;;
82727;SDS011;72459;50.110;8.750;2024-03-07T10:06:55;19.02;;;10.70;;
82727;SDS011;72459;50.110;8.750;2024-03-07T10:09:20;19.42;;;10.10;;
82727;SDS011;72459;50.110;8.750;2024-03-07T10:11:59;19.02;;;11.05;;
82727;SDS011;72459;50.110;8.750;2024-03-07T10:16:55;19.17;;;10.07;;
82727;SDS011;72459;50.110;8.750;2024-03-07T10:19:23;18.40;;;10.02;;
82727;SDS011;72459;50.110;8.750;2024-03-07T10:21:49;19.23;;;10.05;;
82727;SDS011;72459;50.110;8.750;2024-03-07T10:24:17;20.27;;;10.95;;
82727;SDS011;72459;50.110;8.750;2024-03-07T10:26:42;20.75;;;10.07;;
82727;SDS011;72459;50.110;8.750;2024-03-07T10:29:08;18.77;;;9.82;;
82727;SDS011;72459;50.110;8.750;2024-03-07T10:31:34;17.25;;;9.63;;
82727;SDS011;72459;50.110;8.750;2024-03-07T10:36:30;20.65;;;10.52;;
82727;SDS011;72459;50.110;8.750;2024-03-07T10:39:00;19.63;;;9.93;;
82727;SDS011;72459;50.110;8.750;2024-03-07T10:41:44;18.88;;;10.07;;
82727;SDS011;72459;50.110;8.750;2024-03-07T10:44:20;19.70;;;11.15;;
82727;SDS011;72459;50.110;8.750;2024-03-07T10:46:55;18.15;;;10.15;;
82727;SDS011;72459;50.110;8.750;2024-03-07T10:49:22;21.70;;;10.60;;
82727;SDS011;72459;50.110;8.750;2024-03-07T10:52:14;20.23;;;10.95;;
82727;SDS011;72459;50.110;8.750;2024-03-07T10:57:52;19.48;;;10.57;;
82727;SDS011;72459;50.110;8.750;2024-03-07T11:00:27;20.73;;;10.23;;
82727;SDS011;72459;50.110;8.750;2024-03-07T11:03:00;19.55;;;10.15;;
82727;SDS011;72459;50.110;8.750;2024-03-07T11:05:32;17.45;;;9.65;;
82727;SDS011;72459;50.110;8.750;2024-03-07T11:07:58;17.40;;;9.82;;
82727;SDS011;72459;50.110;8.750;2024-03-07T11:10:27;21.85;;;10.93;;
82727;SDS011;72459;50.110;8.750;2024-03-07T11:12:55;18.48;;;10.82;;
82727;SDS011;72459;50.110;8.750;2024-03-07T11:15:23;19.70;;;10.82;;
82727;SDS011;72459;50.110;8.750;2024-03-07T11:17:52;17.67;;;9.35;;
82727;SDS011;72459;50.110;8.750;2024-03-07T11:22:49;16.17;;;9.02;;
82727;SDS011;72459;50.110;8.750;2024-03-07T11:25:18;17.52;;;9.25;;
82727;SDS011;72459;50.110;8.750;2024-03-07T11:27:55;18.45;;;10.27;;
82727;SDS011;72459;50.110;8.750;2024-03-07T11:30:22;16.85;;;10.15;;
82727;SDS011;72459;50.110;8.750;2024-03-07T11:32:49;17.35;;;9.80;;
82727;SDS011;72459;50.110;8.750;2024-03-07T11:35:18;18.98;;;9.45;;
82727;SDS011;72459;50.110;8.750;2024-03-07T11:37:50;18.02;;;9.82;;
82727;SDS011;72459;50.110;8.750;2024-03-07T11:42:49;15.75;;;8.80;;
82727;SDS011;72459;50.110;8.750;2024-03-07T11:45:16;16.08;;;8.50;;
82727;SDS011;72459;50.110;8.750;2024-03-07T11:47:57;18.63;;;9.93;;
82727;SDS011;72459;50.110;8.750;2024-03-07T11:50:33;16.00;;;8.95;;
82727;SDS011;72459;50.110;8.750;2024-03-07T11:53:02;16.30;;;9.30;;
82727;SDS011;72459;50.110;8.750;2024-03-07T11:55:31;16.67;;;9.60;;
82727;SDS011;72459;50.110;8.750;2024-03-07T11:58:19;17.90;;;9.45;;
82727;SDS011;72459;50.110;8.750;2024-03-07T12:00:49;17.73;;;9.05;;
82727;SDS011;72459;50.110;8.750;2024-03-07T12:03:17;17.27;;;9.18;;
82727;SDS011;72459;50.110;8.750;2024-03-07T12:05:46;14.88;;;8.82;;
82727;SDS011;72459;50.110;8.750;2024-03-07T12:08:16;17.23;;;9.40;;
82727;SDS011;72459;50.110;8.750;2024-03-07T12:10:42;14.98;;;8.95;;
82727;SDS011;72459;50.110;8.750;2024-03-07T12:13:12;14.65;;;8.75;;
82727;SDS011;72459;50.110;8.750;2024-03-07T12:15:40;15.60;;;9.05;;
82727;SDS011;72459;50.110;8.750;2024-03-07T12:18:07;14.90;;;8.40;;
82727;SDS011;72459;50.110;8.750;2024-03-07T12:20:37;13.77;;;8.55;;
82727;SDS011;72459;50.110;8.750;2024-03-07T12:23:04;13.80;;;8.18;;
82727;SDS011;72459;50.110;8.750;2024-03-07T12:25:33;13.23;;;6.90;;
82727;SDS011;72459;50.110;8.750;2024-03-07T12:28:08;14.15;;;8.55;;
82727;SDS011;72459;50.110;8.750;2024-03-07T12:33:14;13.77;;;8.13;;
82727;SDS011;72459;50.110;8.750;2024-03-07T12:35:41;14.77;;;8.00;;
82727;SDS011;72459;50.110;8.750;2024-03-07T12:38:08;12.55;;;7.85;;
82727;SDS011;72459;50.110;8.750;2024-03-07T12:40:40;12.80;;;6.90;;
82727;SDS011;72459;50.110;8.750;2024-03-07T12:43:19;12.68;;;7.63;;
82727;SDS011;72459;50.110;8.750;2024-03-07T12:48:15;14.05;;;8.02;;
82727;SDS011;72459;50.110;8.750;2024-03-07T12:50:41;13.77;;;7.78;;
82727;SDS011;72459;50.110;8.750;2024-03-07T12:53:07;14.73;;;7.82;;
82727;SDS011;72459;50.110;8.750;2024-03-07T12:55:38;12.57;;;7.03;;
82727;SDS011;72459;50.110;8.750;2024-03-07T12:58:06;12.82;;;7.35;;
82727;SDS011;72459;50.110;8.750;2024-03-07T13:00:38;10.57;;;6.35;;
82727;SDS011;72459;50.110;8.750;2024-03-07T13:03:06;10.10;;;6.35;;
82727;SDS011;72459;50.110;8.750;2024-03-07T13:05:31;12.85;;;6.82;;
82727;SDS011;72459;50.110;8.750;2024-03-07T13:07:57;10.30;;;6.80;;
82727;SDS011;72459;50.110;8.750;2024-03-07T13:10:22;11.02;;;6.35;;
82727;SDS011;72459;50.110;8.750;2024-03-07T13:12:49;12.30;;;6.80;;
82727;SDS011;72459;50.110;8.750;2024-03-07T13:15:16;9.98;;;6.32;;
82727;SDS011;72459;50.110;8.750;2024-03-07T13:17:47;12.32;;;7.72;;
82727;SDS011;72459;50.110;8.750;2024-03-07T13:20:14;12.88;;;6.95;;
82727;SDS011;72459;50.110;8.750;2024-03-07T13:22:40;9.48;;;6.10;;
82727;SDS011;72459;50.110;8.750;2024-03-07T13:25:24;12.25;;;6.43;;
82727;SDS011;72459;50.110;8.750;2024-03-07T13:27:51;10.48;;;6.28;;
82727;SDS011;72459;50.110;8.750;2024-03-07T13:30:23;10.70;;;6.18;;
82727;SDS011;72459;50.110;8.750;2024-03-07T13:32:52;10.63;;;6.28;;
82727;SDS011;72459;50.110;8.750;2024-03-07T13:35:21;9.32;;;5.93;;
82727;SDS011;72459;50.110;8.750;2024-03-07T13:37:48;12.02;;;6.30;;
82727;SDS011;72459;50.110;8.750;2024-03-07T13:40:15;10.43;;;6.10;;
82727;SDS011;72459;50.110;8.750;2024-03-07T13:42:57;10.35;;;6.10;;
82727;SDS011;72459;50.110;8.750;2024-03-07T13:47:52;10.40;;;5.93;;
82727;SDS011;72459;50.110;8.750;2024-03-07T13:50:19;12.18;;;6.15;;
82727;SDS011;72459;50.110;8.750;2024-03-07T13:52:47;10.25;;;5.55;;
82727;SDS011;72459;50.110;8.750;2024-03-07T13:55:33;11.70;;;6.10;;
82727;SDS011;72459;50.110;8.750;2024-03-07T13:58:06;10.75;;;6.57;;
82727;SDS011;72459;50.110;8.750;2024-03-07T14:00:57;10.73;;;5.72;;
82727;SDS011;72459;50.110;8.750;2024-03-07T14:06:42;8.75;;;5.72;;
82727;SDS011;72459;50.110;8.750;2024-03-07T14:14:39;9.77;;;5.40;;
82727;SDS011;72459;50.110;8.750;2024-03-07T14:20:35;9.05;;;5.47;;
82727;SDS011;72459;50.110;8.750;2024-03-07T14:26:11;12.13;;;6.88;;
82727;SDS011;72459;50.110;8.750;2024-03-07T14:29:12;10.00;;;5.90;;
82727;SDS011;72459;50.110;8.750;2024-03-07T14:31:46;9.65;;;5.85;;
82727;SDS011;72459;50.110;8.750;2024-03-07T14:34:23;10.02;;;5.93;;
82727;SDS011;72459;50.110;8.750;2024-03-07T14:40:17;10.05;;;5.63;;
82727;SDS011;72459;50.110;8.750;2024-03-07T14:42:47;10.20;;;5.75;;
82727;SDS011;72459;50.110;8.750;2024-03-07T14:47:47;9.43;;;5.30;;
82727;SDS011;72459;50.110;8.750;2024-03-07T14:50:15;8.75;;;5.20;;
82727;SDS011;72459;50.110;8.750;2024-03-07T14:52:42;10.77;;;5.60;;
82727;SDS011;72459;50.110;8.750;2024-03-07T14:55:09;10.07;;;5.55;;
82727;SDS011;72459;50.110;8.750;2024-03-07T14:57:45;8.90;;;4.97;;
82727;SDS011;72459;50.110;8.750;2024-03-07T15:00:12;12.35;;;5.93;;
82727;SDS011;72459;50.110;8.750;2024-03-07T15:02:47;11.27;;;4.93;;
82727;SDS011;72459;50.110;8.750;2024-03-07T15:05:15;9.38;;;5.28;;
82727;SDS011;72459;50.110;8.750;2024-03-07T15:07:41;9.90;;;5.25;;
82727;SDS011;72459;50.110;8.750;2024-03-07T15:10:19;11.13;;;5.43;;
82727;SDS011;72459;50.110;8.750;2024-03-07T15:12:51;9.68;;;5.43;;
82727;SDS011;72459;50.110;8.750;2024-03-07T15:15:17;10.35;;;5.43;;
82727;SDS011;72459;50.110;8.750;2024-03-07T15:17:48;10.45;;;5.22;;
82727;SDS011;72459;50.110;8.750;2024-03-07T15:20:13;10.52;;;5.90;;